Date,TemperatureHighF,TemperatureAvgF,TemperatureLowF,DewpointHighF,DewpointAvgF,DewpointLowF,HumidityHigh,HumidityAvg,HumidityLow,PressureMaxIn,PressureMinIn,WindSpeedMaxMPH,WindSpeedAvgMPH,GustSpeedMaxMPH,PrecipitationSumIn
2013-10-1,83.2,64.9,55.1,56.8,50.6,44.7,78,62,33,30.04,29.93,10,2,10,0.00
2013-10-2,81.7,63.8,52.6,52.2,46.1,37.9,80,56,26,30.02,29.93,8,1,8,0.00
2013-10-3,79.6,63.6,52.6,40.9,35.6,26.1,57,38,21,30.07,29.91,16,3,16,0.00
2013-10-4,84.8,66.8,56.5,37.9,32.9,27.2,46,30,17,30.14,30.01,10,2,10,0.00
2013-10-5,88.7,62.9,48.6,42.1,37.6,34.0,64,42,18,30.25,30.14,7,0,7,0.00
2013-10-6,84.1,64.1,49.9,45.7,40.7,36.6,67,45,19,30.18,30.03,5,0,5,0.00
2013-10-7,84.6,66.1,53.1,43.2,40.3,32.3,59,42,16,30.03,29.88,6,0,6,0.00
2013-10-8,82.6,61.7,52.6,46.0,40.4,38.0,62,47,28,29.92,29.69,8,1,8,0.00
2013-10-9,74.9,60.0,52.2,44.1,40.4,38.6,62,50,31,29.78,29.61,8,1,8,0.00
2013-10-10,75.2,60.7,52.4,48.2,43.4,40.4,67,54,35,30.02,29.78,13,2,13,0.00
2013-10-11,76.5,60.7,49.9,48.9,43.7,39.4,74,55,35,30.10,29.98,7,1,7,0.00
2013-10-12,76.7,61.0,50.0,49.7,44.2,41.1,73,56,30,30.03,29.89,8,1,8,0.00
2013-10-13,75.4,60.1,51.1,45.7,43.0,40.9,76,55,30,30.07,29.91,10,1,10,0.00
2013-10-14,77.0,59.2,46.8,47.2,41.7,38.0,78,55,25,30.16,30.03,8,0,8,0.00
2013-10-15,81.4,61.1,48.4,43.1,39.5,36.4,71,49,21,30.08,29.97,7,1,9,0.00
2013-10-16,80.3,61.4,49.5,43.9,40.0,36.7,69,47,23,30.15,30.01,5,0,5,0.00
2013-10-17,80.5,61.5,49.5,45.6,41.3,38.5,71,50,23,30.12,29.98,6,1,6,0.00
2013-10-18,81.0,62.1,50.4,45.1,41.1,37.1,64,48,24,30.09,29.99,7,1,7,0.00
2013-10-19,83.2,63.4,50.8,46.5,42.9,40.1,68,50,23,30.12,30.01,6,0,6,0.00
2013-10-20,82.3,62.7,48.8,46.0,42.7,38.8,69,51,24,30.04,29.91,8,0,8,0.00
2013-10-21,81.0,63.4,51.5,49.4,44.6,40.8,70,52,30,30.02,29.92,4,0,4,0.00
2013-10-22,83.3,63.4,50.9,47.9,44.4,41.6,71,53,25,30.05,29.92,5,0,6,0.00
2013-10-23,82.8,62.9,50.0,45.2,42.5,38.7,71,50,22,29.97,29.87,5,1,6,0.00
2013-10-24,72.4,59.6,49.9,50.4,45.4,41.3,76,60,44,30.09,29.93,7,2,7,0.00
2013-10-25,76.5,59.3,49.0,48.8,45.0,42.0,78,61,34,30.20,30.09,7,1,7,0.00
2013-10-26,79.2,60.9,49.5,48.5,44.1,40.7,73,56,30,30.19,30.03,7,1,7,0.00
2013-10-27,72.4,57.2,48.6,49.1,43.9,38.6,71,62,42,30.03,29.62,18,4,18,0.00
2013-10-28,64.3,54.9,48.1,45.8,42.9,40.9,81,65,46,29.88,29.62,10,2,10,0.00
2013-10-29,63.4,56.6,51.7,47.4,44.0,42.3,72,63,51,30.07,29.88,8,1,8,0.00
2013-10-30,67.1,53.3,43.6,45.8,42.0,38.1,83,67,39,30.18,30.06,8,0,8,0.00
2013-10-31,69.3,54.5,44.6,46.2,41.9,37.5,78,64,40,30.22,30.10,7,1,7,0.00